sensor_id;sensor_type;location;lat;lon;timestamp;temperature;humidity
39219;DHT22;24934;52.752;6.964;2023-04-24T00:00:36;9.20;99.90
39219;DHT22;24934;52.752;6.964;2023-04-24T00:03:03;9.20;99.90
39219;DHT22;24934;52.752;6.964;2023-04-24T00:05:29;9.20;99.90
39219;DHT22;24934;52.752;6.964;2023-04-24T00:07:57;9.20;99.90
39219;DHT22;24934;52.752;6.964;2023-04-24T00:10:23;9.20;99.90
39219;DHT22;24934;52.752;6.964;2023-04-24T00:12:51;9.20;99.90
39219;DHT22;24934;52.752;6.964;2023-04-24T00:15:19;9.10;99.90
39219;DHT22;24934;52.752;6.964;2023-04-24T00:17:45;9.10;99.90
39219;DHT22;24934;52.752;6.964;2023-04-24T00:20:11;9.10;99.90
39219;DHT22;24934;52.752;6.964;2023-04-24T00:22:37;9.00;99.90
39219;DHT22;24934;52.752;6.964;2023-04-24T00:25:02;9.00;99.90
39219;DHT22;24934;52.752;6.964;2023-04-24T00:27:28;9.00;99.90
39219;DHT22;24934;52.752;6.964;2023-04-24T00:29:54;8.90;99.90
39219;DHT22;24934;52.752;6.964;2023-04-24T00:32:19;8.90;99.90
39219;DHT22;24934;52.752;6.964;2023-04-24T00:34:45;8.90;99.90
39219;DHT22;24934;52.752;6.964;2023-04-24T00:37:11;8.80;99.90
39219;DHT22;24934;52.752;6.964;2023-04-24T00:39:37;8.80;99.90
39219;DHT22;24934;52.752;6.964;2023-04-24T00:42:02;8.80;99.90
39219;DHT22;24934;52.752;6.964;2023-04-24T00:44:35;8.80;99.90
39219;DHT22;24934;52.752;6.964;2023-04-24T00:47:01;8.80;99.90
39219;DHT22;24934;52.752;6.964;2023-04-24T00:49:27;8.80;99.90
39219;DHT22;24934;52.752;6.964;2023-04-24T00:51:53;8.80;99.90
39219;DHT22;24934;52.752;6.964;2023-04-24T00:54:19;8.80;99.90
39219;DHT22;24934;52.752;6.964;2023-04-24T00:56:45;8.80;99.90
39219;DHT22;24934;52.752;6.964;2023-04-24T00:59:12;8.80;99.90
39219;DHT22;24934;52.752;6.964;2023-04-24T01:01:41;8.80;99.90
39219;DHT22;24934;52.752;6.964;2023-04-24T01:04:07;8.80;99.90
39219;DHT22;24934;52.752;6.964;2023-04-24T01:06:36;8.80;99.90
39219;DHT22;24934;52.752;6.964;2023-04-24T01:09:02;8.80;99.90
39219;DHT22;24934;52.752;6.964;2023-04-24T01:11:29;8.80;99.90
39219;DHT22;24934;52.752;6.964;2023-04-24T01:13:55;8.70;99.90
39219;DHT22;24934;52.752;6.964;2023-04-24T01:16:21;8.80;99.90
39219;DHT22;24934;52.752;6.964;2023-04-24T01:18:47;8.70;99.90
39219;DHT22;24934;52.752;6.964;2023-04-24T01:21:14;8.70;99.90
39219;DHT22;24934;52.752;6.964;2023-04-24T01:23:44;8.70;99.90
39219;DHT22;24934;52.752;6.964;2023-04-24T01:26:11;8.70;99.90
39219;DHT22;24934;52.752;6.964;2023-04-24T01:28:37;8.70;99.90
39219;DHT22;24934;52.752;6.964;2023-04-24T01:31:03;8.70;99.90
39219;DHT22;24934;52.752;6.964;2023-04-24T01:33:29;8.70;99.90
39219;DHT22;24934;52.752;6.964;2023-04-24T01:35:55;8.70;99.90
39219;DHT22;24934;52.752;6.964;2023-04-24T01:38:23;8.70;99.90
39219;DHT22;24934;52.752;6.964;2023-04-24T01:40:52;8.70;99.90
39219;DHT22;24934;52.752;6.964;2023-04-24T01:43:18;8.70;99.90
39219;DHT22;24934;52.752;6.964;2023-04-24T01:45:44;8.70;99.90
39219;DHT22;24934;52.752;6.964;2023-04-24T01:48:12;8.70;99.90
39219;DHT22;24934;52.752;6.964;2023-04-24T01:50:40;8.70;99.90
39219;DHT22;24934;52.752;6.964;2023-04-24T01:53:06;8.70;99.90
39219;DHT22;24934;52.752;6.964;2023-04-24T01:55:31;8.70;99.90
39219;DHT22;24934;52.752;6.964;2023-04-24T01:57:59;8.70;99.90
39219;DHT22;24934;52.752;6.964;2023-04-24T02:00:25;8.70;99.90
39219;DHT22;24934;52.752;6.964;2023-04-24T02:02:51;8.70;99.90
39219;DHT22;24934;52.752;6.964;2023-04-24T02:05:16;8.70;99.90
39219;DHT22;24934;52.752;6.964;2023-04-24T02:07:42;8.70;99.90
39219;DHT22;24934;52.752;6.964;2023-04-24T02:10:08;8.70;99.90
39219;DHT22;24934;52.752;6.964;2023-04-24T02:12:34;8.70;99.90
39219;DHT22;24934;52.752;6.964;2023-04-24T02:15:00;8.80;99.90
39219;DHT22;24934;52.752;6.964;2023-04-24T02:17:25;8.80;99.90
39219;DHT22;24934;52.752;6.964;2023-04-24T02:19:51;8.80;99.90
39219;DHT22;24934;52.752;6.964;2023-04-24T02:22:17;8.80;99.90
39219;DHT22;24934;52.752;6.964;2023-04-24T02:24:45;8.80;99.90
39219;DHT22;24934;52.752;6.964;2023-04-24T02:27:11;8.80;99.90
39219;DHT22;24934;52.752;6.964;2023-04-24T02:29:37;8.80;99.90
39219;DHT22;24934;52.752;6.964;2023-04-24T02:32:02;8.80;99.90
39219;DHT22;24934;52.752;6.964;2023-04-24T02:34:31;8.90;99.90
39219;DHT22;24934;52.752;6.964;2023-04-24T02:36:57;8.80;99.90
39219;DHT22;24934;52.752;6.964;2023-04-24T02:39:22;8.90;99.90
39219;DHT22;24934;52.752;6.964;2023-04-24T02:41:48;8.90;99.90
39219;DHT22;24934;52.752;6.964;2023-04-24T02:44:13;8.90;99.90
39219;DHT22;24934;52.752;6.964;2023-04-24T02:46:42;8.90;99.90
39219;DHT22;24934;52.752;6.964;2023-04-24T02:49:10;8.90;99.90
39219;DHT22;24934;52.752;6.964;2023-04-24T02:51:37;8.90;99.90
39219;DHT22;24934;52.752;6.964;2023-04-24T02:54:09;8.90;99.90
39219;DHT22;24934;52.752;6.964;2023-04-24T02:56:35;8.90;99.90
39219;DHT22;24934;52.752;6.964;2023-04-24T02:59:01;8.90;99.90
39219;DHT22;24934;52.752;6.964;2023-04-24T03:01:27;8.90;99.90
39219;DHT22;24934;52.752;6.964;2023-04-24T03:03:52;8.90;99.90
39219;DHT22;24934;52.752;6.964;2023-04-24T03:06:18;8.90;99.90
39219;DHT22;24934;52.752;6.964;2023-04-24T03:08:43;8.80;99.90
39219;DHT22;24934;52.752;6.964;2023-04-24T03:11:09;8.90;99.90
39219;DHT22;24934;52.752;6.964;2023-04-24T03:13:35;8.80;99.90
39219;DHT22;24934;52.752;6.964;2023-04-24T03:16:00;8.80;99.90
39219;DHT22;24934;52.752;6.964;2023-04-24T03:18:26;8.80;99.90
39219;DHT22;24934;52.752;6.964;2023-04-24T03:20:52;8.80;99.90
39219;DHT22;24934;52.752;6.964;2023-04-24T03:23:17;8.90;99.90
39219;DHT22;24934;52.752;6.964;2023-04-24T03:25:43;8.80;99.90
39219;DHT22;24934;52.752;6.964;2023-04-24T03:28:09;8.80;99.90
39219;DHT22;24934;52.752;6.964;2023-04-24T03:30:34;8.80;99.90
39219;DHT22;24934;52.752;6.964;2023-04-24T03:33:00;8.80;99.90
39219;DHT22;24934;52.752;6.964;2023-04-24T03:35:26;8.80;99.90
39219;DHT22;24934;52.752;6.964;2023-04-24T03:37:52;8.80;99.90
39219;DHT22;24934;52.752;6.964;2023-04-24T03:40:17;8.70;99.90
39219;DHT22;24934;52.752;6.964;2023-04-24T03:42:43;8.70;99.90
39219;DHT22;24934;52.752;6.964;2023-04-24T03:45:09;8.60;99.90
39219;DHT22;24934;52.752;6.964;2023-04-24T03:47:35;8.60;99.90
39219;DHT22;24934;52.752;6.964;2023-04-24T03:50:01;8.60;99.90
39219;DHT22;24934;52.752;6.964;2023-04-24T03:52:26;8.60;99.90
39219;DHT22;24934;52.752;6.964;2023-04-24T03:54:52;8.60;99.90
39219;DHT22;24934;52.752;6.964;2023-04-24T03:57:19;8.60;99.90
39219;DHT22;24934;52.752;6.964;2023-04-24T03:59:44;8.60;99.90
39219;DHT22;24934;52.752;6.964;2023-04-24T04:02:10;8.60;99.90
39219;DHT22;24934;52.752;6.964;2023-04-24T04:04:36;8.60;99.90
39219;DHT22;24934;52.752;6.964;2023-04-24T04:07:01;8.60;99.90
39219;DHT22;24934;52.752;6.964;2023-04-24T04:09:28;8.60;99.90
39219;DHT22;24934;52.752;6.964;2023-04-24T04:11:54;8.50;99.90
39219;DHT22;24934;52.752;6.964;2023-04-24T04:14:23;8.50;99.90
39219;DHT22;24934;52.752;6.964;2023-04-24T04:16:50;8.50;99.90
39219;DHT22;24934;52.752;6.964;2023-04-24T04:19:19;8.50;99.90
39219;DHT22;24934;52.752;6.964;2023-04-24T04:21:45;8.50;99.90
39219;DHT22;24934;52.752;6.964;2023-04-24T04:24:11;8.50;99.90
39219;DHT22;24934;52.752;6.964;2023-04-24T04:26:37;8.50;99.90
39219;DHT22;24934;52.752;6.964;2023-04-24T04:29:03;8.50;99.90
39219;DHT22;24934;52.752;6.964;2023-04-24T04:31:32;8.60;99.90
39219;DHT22;24934;52.752;6.964;2023-04-24T04:33:58;8.60;99.90
39219;DHT22;24934;52.752;6.964;2023-04-24T04:36:24;8.60;99.90
39219;DHT22;24934;52.752;6.964;2023-04-24T04:38:51;8.60;99.90
39219;DHT22;24934;52.752;6.964;2023-04-24T04:41:16;8.50;99.90
39219;DHT22;24934;52.752;6.964;2023-04-24T04:43:43;8.60;99.90
39219;DHT22;24934;52.752;6.964;2023-04-24T04:46:09;8.60;99.90
39219;DHT22;24934;52.752;6.964;2023-04-24T04:48:36;8.60;99.90
39219;DHT22;24934;52.752;6.964;2023-04-24T04:51:02;8.60;99.90
39219;DHT22;24934;52.752;6.964;2023-04-24T04:53:30;8.60;99.90
39219;DHT22;24934;52.752;6.964;2023-04-24T04:55:56;8.60;99.90
39219;DHT22;24934;52.752;6.964;2023-04-24T04:58:22;8.60;99.90
39219;DHT22;24934;52.752;6.964;2023-04-24T05:00:47;8.60;99.90
39219;DHT22;24934;52.752;6.964;2023-04-24T05:03:14;8.60;99.90
39219;DHT22;24934;52.752;6.964;2023-04-24T05:05:39;8.60;99.90
39219;DHT22;24934;52.752;6.964;2023-04-24T05:08:07;8.60;99.90
39219;DHT22;24934;52.752;6.964;2023-04-24T05:10:33;8.60;99.90
39219;DHT22;24934;52.752;6.964;2023-04-24T05:12:58;8.60;99.90
39219;DHT22;24934;52.752;6.964;2023-04-24T05:15:27;8.70;99.90
39219;DHT22;24934;52.752;6.964;2023-04-24T05:17:52;8.70;99.90
39219;DHT22;24934;52.752;6.964;2023-04-24T05:20:18;8.70;99.90
39219;DHT22;24934;52.752;6.964;2023-04-24T05:22:44;8.70;99.90
39219;DHT22;24934;52.752;6.964;2023-04-24T05:25:09;8.70;99.90
39219;DHT22;24934;52.752;6.964;2023-04-24T05:27:37;8.70;99.90
39219;DHT22;24934;52.752;6.964;2023-04-24T05:30:07;8.70;99.90
39219;DHT22;24934;52.752;6.964;2023-04-24T05:32:33;8.70;99.90
39219;DHT22;24934;52.752;6.964;2023-04-24T05:34:58;8.70;99.90
39219;DHT22;24934;52.752;6.964;2023-04-24T05:37:24;8.70;99.90
39219;DHT22;24934;52.752;6.964;2023-04-24T05:39:49;8.60;99.90
39219;DHT22;24934;52.752;6.964;2023-04-24T05:42:15;8.60;99.90
39219;DHT22;24934;52.752;6.964;2023-04-24T05:44:44;8.60;99.90
39219;DHT22;24934;52.752;6.964;2023-04-24T05:47:09;8.70;99.90
39219;DHT22;24934;52.752;6.964;2023-04-24T05:49:38;8.70;99.90
39219;DHT22;24934;52.752;6.964;2023-04-24T05:52:03;8.70;99.90
39219;DHT22;24934;52.752;6.964;2023-04-24T05:54:30;8.80;99.90
39219;DHT22;24934;52.752;6.964;2023-04-24T05:56:56;8.80;99.90
39219;DHT22;24934;52.752;6.964;2023-04-24T05:59:22;8.80;99.90
39219;DHT22;24934;52.752;6.964;2023-04-24T06:01:48;8.70;99.90
39219;DHT22;24934;52.752;6.964;2023-04-24T06:04:22;8.70;99.90
39219;DHT22;24934;52.752;6.964;2023-04-24T06:06:48;8.70;99.90
39219;DHT22;24934;52.752;6.964;2023-04-24T06:09:18;8.70;99.90
39219;DHT22;24934;52.752;6.964;2023-04-24T06:11:47;8.70;99.90
39219;DHT22;24934;52.752;6.964;2023-04-24T06:14:12;8.70;99.90
39219;DHT22;24934;52.752;6.964;2023-04-24T06:16:39;8.70;99.90
39219;DHT22;24934;52.752;6.964;2023-04-24T06:19:05;8.70;99.90
39219;DHT22;24934;52.752;6.964;2023-04-24T06:21:33;8.80;99.90
39219;DHT22;24934;52.752;6.964;2023-04-24T06:23:59;8.80;99.90
39219;DHT22;24934;52.752;6.964;2023-04-24T06:26:25;8.80;99.90
39219;DHT22;24934;52.752;6.964;2023-04-24T06:28:52;8.70;99.90
39219;DHT22;24934;52.752;6.964;2023-04-24T06:31:21;8.70;99.90
39219;DHT22;24934;52.752;6.964;2023-04-24T06:33:48;8.70;99.90
39219;DHT22;24934;52.752;6.964;2023-04-24T06:36:14;8.70;99.90
39219;DHT22;24934;52.752;6.964;2023-04-24T06:38:40;8.70;99.90
39219;DHT22;24934;52.752;6.964;2023-04-24T06:41:07;8.70;99.90
39219;DHT22;24934;52.752;6.964;2023-04-24T06:43:32;8.70;99.90
39219;DHT22;24934;52.752;6.964;2023-04-24T06:45:59;8.60;99.90
39219;DHT22;24934;52.752;6.964;2023-04-24T06:48:25;8.70;99.90
39219;DHT22;24934;52.752;6.964;2023-04-24T06:50:51;8.70;99.90
39219;DHT22;24934;52.752;6.964;2023-04-24T06:53:17;8.60;99.90
39219;DHT22;24934;52.752;6.964;2023-04-24T06:55:43;8.70;99.90
39219;DHT22;24934;52.752;6.964;2023-04-24T06:58:13;8.60;99.90
39219;DHT22;24934;52.752;6.964;2023-04-24T07:00:42;8.60;99.90
39219;DHT22;24934;52.752;6.964;2023-04-24T07:03:08;8.60;99.90
39219;DHT22;24934;52.752;6.964;2023-04-24T07:05:34;8.60;99.90
39219;DHT22;24934;52.752;6.964;2023-04-24T07:08:00;8.60;99.90
39219;DHT22;24934;52.752;6.964;2023-04-24T07:10:27;8.60;99.90
39219;DHT22;24934;52.752;6.964;2023-04-24T07:12:54;8.50;99.90
39219;DHT22;24934;52.752;6.964;2023-04-24T07:15:21;8.50;99.90
39219;DHT22;24934;52.752;6.964;2023-04-24T07:17:46;8.50;99.90
39219;DHT22;24934;52.752;6.964;2023-04-24T07:20:12;8.50;99.90
39219;DHT22;24934;52.752;6.964;2023-04-24T07:22:42;8.50;99.90
39219;DHT22;24934;52.752;6.964;2023-04-24T07:25:07;8.50;99.90
39219;DHT22;24934;52.752;6.964;2023-04-24T07:27:34;8.50;99.90
39219;DHT22;24934;52.752;6.964;2023-04-24T07:30:00;8.50;99.90
39219;DHT22;24934;52.752;6.964;2023-04-24T07:32:26;8.50;99.90
39219;DHT22;24934;52.752;6.964;2023-04-24T07:34:54;8.50;99.90
39219;DHT22;24934;52.752;6.964;2023-04-24T07:37:20;8.50;99.90
39219;DHT22;24934;52.752;6.964;2023-04-24T07:39:46;8.40;99.90
39219;DHT22;24934;52.752;6.964;2023-04-24T07:42:13;8.50;99.90
39219;DHT22;24934;52.752;6.964;2023-04-24T07:44:39;8.50;99.90
39219;DHT22;24934;52.752;6.964;2023-04-24T07:47:04;8.60;99.90
39219;DHT22;24934;52.752;6.964;2023-04-24T07:49:30;8.60;99.90
39219;DHT22;24934;52.752;6.964;2023-04-24T07:51:59;8.50;99.90
39219;DHT22;24934;52.752;6.964;2023-04-24T07:54:27;8.50;99.90
39219;DHT22;24934;52.752;6.964;2023-04-24T07:56:52;8.60;99.90
39219;DHT22;24934;52.752;6.964;2023-04-24T07:59:19;8.60;99.90
39219;DHT22;24934;52.752;6.964;2023-04-24T08:01:48;8.70;99.90
39219;DHT22;24934;52.752;6.964;2023-04-24T08:04:14;8.70;99.90
39219;DHT22;24934;52.752;6.964;2023-04-24T08:06:43;8.80;99.90
39219;DHT22;24934;52.752;6.964;2023-04-24T08:09:09;8.90;99.90
39219;DHT22;24934;52.752;6.964;2023-04-24T08:11:35;9.00;99.90
39219;DHT22;24934;52.752;6.964;2023-04-24T08:14:01;9.00;99.90
39219;DHT22;24934;52.752;6.964;2023-04-24T08:16:27;9.10;99.90
39219;DHT22;24934;52.752;6.964;2023-04-24T08:18:53;9.20;99.90
39219;DHT22;24934;52.752;6.964;2023-04-24T08:21:19;9.20;99.90
39219;DHT22;24934;52.752;6.964;2023-04-24T08:23:46;9.20;99.90
39219;DHT22;24934;52.752;6.964;2023-04-24T08:26:14;9.30;99.90
39219;DHT22;24934;52.752;6.964;2023-04-24T08:28:40;9.30;99.90
39219;DHT22;24934;52.752;6.964;2023-04-24T08:31:06;9.30;99.90
39219;DHT22;24934;52.752;6.964;2023-04-24T08:33:31;9.30;99.90
39219;DHT22;24934;52.752;6.964;2023-04-24T08:36:03;9.40;99.90
39219;DHT22;24934;52.752;6.964;2023-04-24T08:38:29;9.40;99.90
39219;DHT22;24934;52.752;6.964;2023-04-24T08:40:58;9.40;99.90
39219;DHT22;24934;52.752;6.964;2023-04-24T08:43:24;9.40;99.90
39219;DHT22;24934;52.752;6.964;2023-04-24T08:45:50;9.40;99.90
39219;DHT22;24934;52.752;6.964;2023-04-24T08:48:19;9.40;99.90
39219;DHT22;24934;52.752;6.964;2023-04-24T08:50:46;9.40;99.90
39219;DHT22;24934;52.752;6.964;2023-04-24T08:53:13;9.40;99.90
39219;DHT22;24934;52.752;6.964;2023-04-24T08:55:38;9.40;99.90
39219;DHT22;24934;52.752;6.964;2023-04-24T08:58:06;9.40;99.90
39219;DHT22;24934;52.752;6.964;2023-04-24T09:00:32;9.50;99.90
39219;DHT22;24934;52.752;6.964;2023-04-24T09:03:00;9.40;99.90
39219;DHT22;24934;52.752;6.964;2023-04-24T09:05:28;9.40;99.90
39219;DHT22;24934;52.752;6.964;2023-04-24T09:07:55;9.40;99.90
39219;DHT22;24934;52.752;6.964;2023-04-24T09:10:25;9.30;99.90
39219;DHT22;24934;52.752;6.964;2023-04-24T09:12:51;9.30;99.90
39219;DHT22;24934;52.752;6.964;2023-04-24T09:15:19;9.20;99.90
39219;DHT22;24934;52.752;6.964;2023-04-24T09:17:46;9.20;99.90
39219;DHT22;24934;52.752;6.964;2023-04-24T09:20:12;9.10;99.90
39219;DHT22;24934;52.752;6.964;2023-04-24T09:22:38;9.10;99.90
39219;DHT22;24934;52.752;6.964;2023-04-24T09:25:05;9.10;99.90
39219;DHT22;24934;52.752;6.964;2023-04-24T09:27:33;9.10;99.90
39219;DHT22;24934;52.752;6.964;2023-04-24T09:29:59;9.10;99.90
39219;DHT22;24934;52.752;6.964;2023-04-24T09:32:27;9.20;99.90
39219;DHT22;24934;52.752;6.964;2023-04-24T09:35:13;9.10;99.90
39219;DHT22;24934;52.752;6.964;2023-04-24T09:37:46;9.00;99.90
39219;DHT22;24934;52.752;6.964;2023-04-24T09:40:17;9.00;99.90
39219;DHT22;24934;52.752;6.964;2023-04-24T09:42:54;9.10;99.90
39219;DHT22;24934;52.752;6.964;2023-04-24T09:45:21;9.00;99.90
39219;DHT22;24934;52.752;6.964;2023-04-24T09:47:52;9.10;99.90
39219;DHT22;24934;52.752;6.964;2023-04-24T09:50:19;9.10;99.90
39219;DHT22;24934;52.752;6.964;2023-04-24T09:52:57;9.10;99.90
39219;DHT22;24934;52.752;6.964;2023-04-24T09:55:23;9.10;99.90
39219;DHT22;24934;52.752;6.964;2023-04-24T09:57:53;9.00;99.90
39219;DHT22;24934;52.752;6.964;2023-04-24T10:00:30;9.00;99.90
39219;DHT22;24934;52.752;6.964;2023-04-24T10:03:00;8.90;99.90
39219;DHT22;24934;52.752;6.964;2023-04-24T10:05:33;9.00;99.90
39219;DHT22;24934;52.752;6.964;2023-04-24T10:08:09;9.00;99.90
39219;DHT22;24934;52.752;6.964;2023-04-24T10:10:42;9.10;99.90
39219;DHT22;24934;52.752;6.964;2023-04-24T10:13:12;9.00;99.90
39219;DHT22;24934;52.752;6.964;2023-04-24T10:15:39;9.00;99.90
39219;DHT22;24934;52.752;6.964;2023-04-24T10:18:06;8.90;99.90
39219;DHT22;24934;52.752;6.964;2023-04-24T10:20:32;8.90;99.90
39219;DHT22;24934;52.752;6.964;2023-04-24T10:22:59;8.90;99.90
39219;DHT22;24934;52.752;6.964;2023-04-24T10:25:28;8.90;99.90
39219;DHT22;24934;52.752;6.964;2023-04-24T10:27:55;9.00;99.90
39219;DHT22;24934;52.752;6.964;2023-04-24T10:30:33;8.90;99.90
39219;DHT22;24934;52.752;6.964;2023-04-24T10:33:07;8.80;99.90
39219;DHT22;24934;52.752;6.964;2023-04-24T10:35:36;8.70;99.90
39219;DHT22;24934;52.752;6.964;2023-04-24T10:38:09;8.70;99.90
39219;DHT22;24934;52.752;6.964;2023-04-24T10:40:36;8.60;99.90
39219;DHT22;24934;52.752;6.964;2023-04-24T10:43:08;8.60;99.90
39219;DHT22;24934;52.752;6.964;2023-04-24T10:45:40;8.60;99.90
39219;DHT22;24934;52.752;6.964;2023-04-24T10:48:07;8.70;99.90
39219;DHT22;24934;52.752;6.964;2023-04-24T10:50:47;8.70;99.90
39219;DHT22;24934;52.752;6.964;2023-04-24T10:53:18;8.80;99.90
39219;DHT22;24934;52.752;6.964;2023-04-24T10:55:51;8.70;99.90
39219;DHT22;24934;52.752;6.964;2023-04-24T10:58:24;8.80;99.90
39219;DHT22;24934;52.752;6.964;2023-04-24T11:00:58;8.80;99.90
39219;DHT22;24934;52.752;6.964;2023-04-24T11:03:32;8.80;99.90
39219;DHT22;24934;52.752;6.964;2023-04-24T11:06:08;8.80;99.90
39219;DHT22;24934;52.752;6.964;2023-04-24T11:08:38;8.80;99.90
39219;DHT22;24934;52.752;6.964;2023-04-24T11:16:23;8.40;99.90
39219;DHT22;24934;52.752;6.964;2023-04-24T11:19:01;8.30;99.90
39219;DHT22;24934;52.752;6.964;2023-04-24T11:21:44;8.20;99.90
39219;DHT22;24934;52.752;6.964;2023-04-24T11:35:07;8.30;99.90
39219;DHT22;24934;52.752;6.964;2023-04-24T11:37:38;8.40;99.90
39219;DHT22;24934;52.752;6.964;2023-04-24T11:40:07;8.50;99.90
39219;DHT22;24934;52.752;6.964;2023-04-24T11:42:37;8.70;99.90
39219;DHT22;24934;52.752;6.964;2023-04-24T11:47:37;8.60;99.90
39219;DHT22;24934;52.752;6.964;2023-04-24T11:50:04;8.50;99.90
39219;DHT22;24934;52.752;6.964;2023-04-24T11:52:30;8.40;99.90
39219;DHT22;24934;52.752;6.964;2023-04-24T11:54:56;8.40;99.90
39219;DHT22;24934;52.752;6.964;2023-04-24T11:57:24;8.30;99.90
39219;DHT22;24934;52.752;6.964;2023-04-24T11:59:53;8.30;99.90
39219;DHT22;24934;52.752;6.964;2023-04-24T12:02:26;8.30;99.90
39219;DHT22;24934;52.752;6.964;2023-04-24T12:04:53;8.40;99.90
39219;DHT22;24934;52.752;6.964;2023-04-24T12:07:19;8.60;99.90
39219;DHT22;24934;52.752;6.964;2023-04-24T12:09:46;8.70;99.90
39219;DHT22;24934;52.752;6.964;2023-04-24T12:12:13;8.90;99.90
39219;DHT22;24934;52.752;6.964;2023-04-24T12:14:49;9.10;99.90
39219;DHT22;24934;52.752;6.964;2023-04-24T12:17:23;9.20;99.90
39219;DHT22;24934;52.752;6.964;2023-04-24T12:19:49;9.40;99.90
39219;DHT22;24934;52.752;6.964;2023-04-24T12:22:16;9.60;99.90
39219;DHT22;24934;52.752;6.964;2023-04-24T12:24:57;9.70;99.90
39219;DHT22;24934;52.752;6.964;2023-04-24T12:27:24;9.80;99.90
39219;DHT22;24934;52.752;6.964;2023-04-24T12:29:57;9.90;99.90
39219;DHT22;24934;52.752;6.964;2023-04-24T12:32:25;9.80;99.90
39219;DHT22;24934;52.752;6.964;2023-04-24T12:34:53;9.70;99.90
39219;DHT22;24934;52.752;6.964;2023-04-24T12:37:23;9.50;99.90
39219;DHT22;24934;52.752;6.964;2023-04-24T12:40:05;9.20;99.90
39219;DHT22;24934;52.752;6.964;2023-04-24T12:42:32;9.10;99.90
39219;DHT22;24934;52.752;6.964;2023-04-24T12:45:00;9.00;99.90
39219;DHT22;24934;52.752;6.964;2023-04-24T12:47:27;8.90;99.90
39219;DHT22;24934;52.752;6.964;2023-04-24T12:49:53;8.80;99.90
39219;DHT22;24934;52.752;6.964;2023-04-24T12:52:23;8.60;99.90
39219;DHT22;24934;52.752;6.964;2023-04-24T12:54:50;8.60;99.90
39219;DHT22;24934;52.752;6.964;2023-04-24T12:57:17;8.50;99.90
39219;DHT22;24934;52.752;6.964;2023-04-24T12:59:43;8.60;99.90
39219;DHT22;24934;52.752;6.964;2023-04-24T13:02:13;8.70;99.90
39219;DHT22;24934;52.752;6.964;2023-04-24T13:04:43;8.70;99.90
39219;DHT22;24934;52.752;6.964;2023-04-24T13:07:08;8.80;99.90
39219;DHT22;24934;52.752;6.964;2023-04-24T13:09:34;8.80;99.90
39219;DHT22;24934;52.752;6.964;2023-04-24T13:12:01;8.70;99.90
39219;DHT22;24934;52.752;6.964;2023-04-24T13:14:26;8.60;99.90
39219;DHT22;24934;52.752;6.964;2023-04-24T13:16:52;8.40;99.90
39219;DHT22;24934;52.752;6.964;2023-04-24T13:19:18;8.50;99.90
39219;DHT22;24934;52.752;6.964;2023-04-24T13:21:43;8.70;99.90
39219;DHT22;24934;52.752;6.964;2023-04-24T13:24:10;8.90;99.90
39219;DHT22;24934;52.752;6.964;2023-04-24T13:26:35;9.00;99.90
39219;DHT22;24934;52.752;6.964;2023-04-24T13:29:01;9.20;99.90
39219;DHT22;24934;52.752;6.964;2023-04-24T13:31:29;9.30;99.90
39219;DHT22;24934;52.752;6.964;2023-04-24T13:33:55;9.30;99.90
39219;DHT22;24934;52.752;6.964;2023-04-24T13:36:23;9.40;99.90
39219;DHT22;24934;52.752;6.964;2023-04-24T13:38:49;9.40;99.90
39219;DHT22;24934;52.752;6.964;2023-04-24T13:41:14;9.40;99.90
39219;DHT22;24934;52.752;6.964;2023-04-24T13:43:40;9.20;99.90
39219;DHT22;24934;52.752;6.964;2023-04-24T13:46:08;9.00;99.90
39219;DHT22;24934;52.752;6.964;2023-04-24T13:48:34;8.80;99.90
39219;DHT22;24934;52.752;6.964;2023-04-24T13:50:59;8.70;99.90
39219;DHT22;24934;52.752;6.964;2023-04-24T13:53:25;8.60;99.90
39219;DHT22;24934;52.752;6.964;2023-04-24T13:55:53;8.60;99.90
39219;DHT22;24934;52.752;6.964;2023-04-24T13:58:19;8.60;99.90
39219;DHT22;24934;52.752;6.964;2023-04-24T14:00:45;8.80;99.90
39219;DHT22;24934;52.752;6.964;2023-04-24T14:03:10;8.90;99.90
39219;DHT22;24934;52.752;6.964;2023-04-24T14:05:36;9.00;99.90
39219;DHT22;24934;52.752;6.964;2023-04-24T14:08:01;9.10;99.90
39219;DHT22;24934;52.752;6.964;2023-04-24T14:10:27;9.10;99.90
39219;DHT22;24934;52.752;6.964;2023-04-24T14:12:53;9.00;99.90
39219;DHT22;24934;52.752;6.964;2023-04-24T14:15:19;8.90;99.90
39219;DHT22;24934;52.752;6.964;2023-04-24T14:17:45;8.90;99.90
39219;DHT22;24934;52.752;6.964;2023-04-24T14:20:12;8.80;99.90
39219;DHT22;24934;52.752;6.964;2023-04-24T14:22:38;8.60;99.90
39219;DHT22;24934;52.752;6.964;2023-04-24T14:25:06;8.50;99.90
39219;DHT22;24934;52.752;6.964;2023-04-24T14:27:32;8.50;99.90
39219;DHT22;24934;52.752;6.964;2023-04-24T14:30:02;8.40;99.90
39219;DHT22;24934;52.752;6.964;2023-04-24T14:32:28;8.30;99.90
39219;DHT22;24934;52.752;6.964;2023-04-24T14:34:54;8.30;99.90
39219;DHT22;24934;52.752;6.964;2023-04-24T14:37:22;8.10;99.90
39219;DHT22;24934;52.752;6.964;2023-04-24T14:39:48;8.10;99.90
39219;DHT22;24934;52.752;6.964;2023-04-24T14:42:13;8.00;99.90
39219;DHT22;24934;52.752;6.964;2023-04-24T14:44:39;8.00;99.90
39219;DHT22;24934;52.752;6.964;2023-04-24T14:47:05;8.00;99.90
39219;DHT22;24934;52.752;6.964;2023-04-24T14:49:31;8.00;99.90
39219;DHT22;24934;52.752;6.964;2023-04-24T14:51:56;8.00;99.90
39219;DHT22;24934;52.752;6.964;2023-04-24T14:54:22;8.00;99.90
39219;DHT22;24934;52.752;6.964;2023-04-24T14:56:49;8.00;99.90
39219;DHT22;24934;52.752;6.964;2023-04-24T14:59:15;8.10;99.90
39219;DHT22;24934;52.752;6.964;2023-04-24T15:01:40;8.10;99.90
39219;DHT22;24934;52.752;6.964;2023-04-24T15:04:06;8.10;99.90
39219;DHT22;24934;52.752;6.964;2023-04-24T15:06:32;8.20;99.90
39219;DHT22;24934;52.752;6.964;2023-04-24T15:08:58;8.20;99.90
39219;DHT22;24934;52.752;6.964;2023-04-24T15:11:24;8.20;99.90
39219;DHT22;24934;52.752;6.964;2023-04-24T15:13:50;8.30;99.90
39219;DHT22;24934;52.752;6.964;2023-04-24T15:16:15;8.40;99.90
39219;DHT22;24934;52.752;6.964;2023-04-24T15:18:41;8.40;99.90
39219;DHT22;24934;52.752;6.964;2023-04-24T15:21:10;8.50;99.90
39219;DHT22;24934;52.752;6.964;2023-04-24T15:23:37;8.50;99.90
39219;DHT22;24934;52.752;6.964;2023-04-24T15:26:03;8.50;99.90
39219;DHT22;24934;52.752;6.964;2023-04-24T15:28:29;8.40;99.90
39219;DHT22;24934;52.752;6.964;2023-04-24T15:30:55;8.50;99.90
39219;DHT22;24934;52.752;6.964;2023-04-24T15:33:22;8.50;99.90
39219;DHT22;24934;52.752;6.964;2023-04-24T15:35:48;8.50;99.90
39219;DHT22;24934;52.752;6.964;2023-04-24T15:38:17;8.60;99.90
39219;DHT22;24934;52.752;6.964;2023-04-24T15:40:45;8.60;99.90
39219;DHT22;24934;52.752;6.964;2023-04-24T15:43:11;8.60;99.90
39219;DHT22;24934;52.752;6.964;2023-04-24T15:45:37;8.70;99.90
39219;DHT22;24934;52.752;6.964;2023-04-24T15:48:03;8.70;99.90
39219;DHT22;24934;52.752;6.964;2023-04-24T15:50:28;8.70;99.90
39219;DHT22;24934;52.752;6.964;2023-04-24T15:52:55;8.80;99.90
39219;DHT22;24934;52.752;6.964;2023-04-24T15:55:23;9.00;99.90
39219;DHT22;24934;52.752;6.964;2023-04-24T15:57:49;9.10;99.90
39219;DHT22;24934;52.752;6.964;2023-04-24T16:00:16;9.10;99.90
39219;DHT22;24934;52.752;6.964;2023-04-24T16:02:42;9.10;99.90